Airfield :
LOGIN :

Register | Disclaimer

   EN    FR    IT 

 










Legend :    VFR   Marginal VFR   IFR   Intensive IFR   Very Intensive IFR
Visi :
Ceiling :
>= 8 km
>= 3000ft
5 to 8 km
1000 to 3000 ft
1500m to 5 km
500 to 1000 ft
800 to 1500m
200 to 500 ft
< 800m
< 200 ft
Symbols :   Thunderstorms  Fog  Heavy snow  Heavy precipitations  Wind > 20 kt
SIGMETs :     Misc.  Thunderstorms  Icing  Turbulence  Mountain Waves  Volcanic Ashes






- Airport Elevation : 510 ft


LJCE - Cerklje

CURRENT METAR :
  • 030700Z 27003KT 210V340 CAVOK 24/14 Q1020 RMK BLU

EXPIRED METARs :
  • 030630Z 21003KT 170V240 CAVOK 22/14 Q1020 RMK BLU
  • 030600Z VRB02KT CAVOK 20/15 Q1020 RMK BLU
  • 030530Z 27004KT 230V300 CAVOK 19/15 Q1020 RMK BLU
  • 030500Z AUTO 25003KT 9999 NSC 18/15 Q1020
  • 030430Z AUTO VRB02KT 9999 NSC 17/15 Q1020

TAF TAF LJCE
Valid from the 03 at 06:00 until the 03 at 15:00 UTC


030500Z 0306/0315 08004KT CAVOK



MET'MAP, your aeronautical weather chart ! - Copyright ORBIFLY December 2007 - Disclaimer

ORBIFLY MET'MAP TEAM :

Programming & Development : Alexandra Zaïnal
Original concept : Baudouin d'Aumeries
Technical & hardware support : Manuel Goepfert
Assistance : Marc-Olivier Méhu




SOURCES & CREDITS :

   NOAA